| time (UTC) | temp C | wind direction | speed KPH | gust KPH | rain 1hr cm | rain 24hr cm | rain mn cm | humidity % | barometer mb |
| 20260906215227 | 27 | 47 | 14.5 | 16.1 | 0.00 | 0.00 | 0.00 | 99 | 1024.2 |
| 20260906214725 | 27 | 47 | 14.5 | 16.1 | 0.00 | 0.00 | 0.00 | 99 | 1024.2 |
| 20260906214220 | 26 | 337 | 17.7 | 20.9 | 0.00 | 0.00 | 0.00 | 99 | 1024.5 |
| 20260906213714 | 26 | 337 | 17.7 | 20.9 | 0.00 | 0.00 | 0.00 | 99 | 1024.5 |
| 20260906213213 | 27 | 26 | 17.7 | 22.5 | 0.00 | 0.00 | 0.00 | 99 | 1024.5 |
| 20260906212710 | 27 | 26 | 17.7 | 22.5 | 0.00 | 0.00 | 0.00 | 99 | 1024.5 |
| 20260906212206 | 27 | 199 | 4.8 | 9.7 | 0.00 | 0.00 | 0.00 | 99 | 1024.5 |
| 20260906211701 | 27 | 199 | 4.8 | 9.7 | 0.00 | 0.00 | 0.00 | 99 | 1024.5 |
| 20260906211156 | 26 | 17 | 9.7 | 11.3 | 0.00 | 0.00 | 0.00 | 99 | 1024.6 |
| 20260906210651 | 26 | 17 | 9.7 | 11.3 | 0.00 | 0.00 | 0.00 | 99 | 1024.6 |
| 20260906210146 | 26 | 292 | 12.9 | 14.5 | 0.00 | 0.00 | 0.00 | 99 | 1024.7 |
| 20260906205641 | 26 | 292 | 12.9 | 14.5 | 0.00 | 0.00 | 0.00 | 99 | 1024.7 |
| 20260906205137 | 26 | 324 | 24.1 | 27.4 | 0.00 | 0.00 | 0.00 | 99 | 1024.6 |
| 20260906204637 | 26 | 324 | 24.1 | 27.4 | 0.00 | 0.00 | 0.00 | 99 | 1024.6 |
| 20260906204131 | 26 | 24 | 6.4 | 9.7 | 0.00 | 0.00 | 0.00 | 99 | 1024.8 |
| 20260906203626 | 26 | 24 | 6.4 | 9.7 | 0.00 | 0.00 | 0.00 | 99 | 1024.8 |
| 20260906203125 | 26 | 329 | 16.1 | 17.7 | 0.00 | 0.00 | 0.00 | 99 | 1025.0 |
| 20260906202622 | 26 | 329 | 16.1 | 17.7 | 0.00 | 0.00 | 0.00 | 99 | 1025.0 |
| 20260906202116 | 26 | 173 | 6.4 | 9.7 | 0.00 | 0.00 | 0.00 | 99 | 1025.1 |
| 20260906201611 | 26 | 173 | 6.4 | 9.7 | 0.00 | 0.00 | 0.00 | 99 | 1025.1 |
| 20260906201110 | 26 | 28 | 9.7 | 16.1 | 0.00 | 0.00 | 0.00 | 99 | 1025.2 |
| 20260906200608 | 26 | 28 | 9.7 | 16.1 | 0.00 | 0.00 | 0.00 | 99 | 1025.2 |
| 20260906200103 | 25 | 277 | 20.9 | 25.7 | 0.00 | 0.00 | 0.00 | 99 | 1025.2 |
| 20260906195558 | 25 | 277 | 20.9 | 25.7 | 0.00 | 0.00 | 0.00 | 99 | 1025.2 |
| 20260906195054 | 26 | 351 | 17.7 | 20.9 | 0.00 | 0.00 | 0.00 | 99 | 1025.3 |
| 20260906194549 | 26 | 351 | 17.7 | 20.9 | 0.00 | 0.00 | 0.00 | 99 | 1025.3 |
| 20260906194045 | 26 | 299 | 17.7 | 24.1 | 0.00 | 0.00 | 0.00 | 99 | 1025.2 |
| 20260906193545 | 26 | 299 | 17.7 | 24.1 | 0.00 | 0.00 | 0.00 | 99 | 1025.2 |
| 20260906193040 | 26 | 233 | 12.9 | 14.5 | 0.00 | 0.00 | 0.00 | 99 | 1025.6 |
| 20260906192535 | 26 | 233 | 12.9 | 14.5 | 0.00 | 0.00 | 0.00 | 99 | 1025.6 |
| 20260906192034 | 25 | 291 | 17.7 | 17.7 | 0.00 | 0.00 | 0.00 | 99 | 1025.7 |
| 20260906191530 | 25 | 291 | 17.7 | 17.7 | 0.00 | 0.00 | 0.00 | 99 | 1025.7 |
| 20260906191029 | 25 | 303 | 12.9 | 16.1 | 0.00 | 0.00 | 0.00 | 99 | 1025.8 |
| 20260906190528 | 25 | 303 | 12.9 | 16.1 | 0.00 | 0.00 | 0.00 | 99 | 1025.8 |
| 20260906190023 | 26 | 291 | 12.9 | 14.5 | 0.00 | 0.00 | 0.00 | 99 | 1026.0 |
| 20260906185522 | 26 | 291 | 12.9 | 14.5 | 0.00 | 0.00 | 0.00 | 99 | 1026.0 |
| 20260906185021 | 25 | 264 | 12.9 | 12.9 | 0.00 | 0.00 | 0.00 | 99 | 1026.0 |
| 20260906184517 | 25 | 264 | 12.9 | 12.9 | 0.00 | 0.00 | 0.00 | 99 | 1026.0 |
| 20260906184012 | 26 | 279 | 12.9 | 14.5 | 0.00 | 0.00 | 0.00 | 99 | 1026.1 |
| 20260906183508 | 26 | 279 | 12.9 | 14.5 | 0.00 | 0.00 | 0.00 | 99 | 1026.1 |
| 20260906183003 | 25 | 244 | 6.4 | 9.7 | 0.00 | 0.00 | 0.00 | 99 | 1026.5 |
| 20260906182459 | 25 | 244 | 6.4 | 9.7 | 0.00 | 0.00 | 0.00 | 99 | 1026.5 |
| 20260906181954 | 25 | 272 | 12.9 | 14.5 | 0.00 | 0.00 | 0.00 | 99 | 1026.5 |
| 20260906181450 | 25 | 272 | 12.9 | 14.5 | 0.00 | 0.00 | 0.00 | 99 | 1026.5 |
| 20260906180946 | 24 | 243 | 9.7 | 12.9 | 0.00 | 0.00 | 0.00 | 99 | 1026.7 |
| 20260906180441 | 24 | 243 | 9.7 | 12.9 | 0.00 | 0.00 | 0.00 | 99 | 1026.7 |
| 20260906175939 | 25 | 283 | 12.9 | 16.1 | 0.00 | 0.00 | 0.00 | 99 | 1027.0 |
| 20260906175439 | 25 | 283 | 12.9 | 16.1 | 0.00 | 0.00 | 0.00 | 99 | 1027.0 |
| 20260906174937 | 26 | 278 | 14.5 | 16.1 | 0.00 | 0.00 | 0.00 | 99 | 1027.0 |
| 20260906174431 | 26 | 278 | 14.5 | 16.1 | 0.00 | 0.00 | 0.00 | 99 | 1027.0 |
| 20260906173927 | 25 | 255 | 9.7 | 12.9 | 0.00 | 0.00 | 0.00 | 99 | 1027.0 |
| 20260906173422 | 25 | 255 | 9.7 | 12.9 | 0.00 | 0.00 | 0.00 | 99 | 1027.0 |
| 20260906172921 | 25 | 220 | 8.0 | 9.7 | 0.00 | 0.00 | 0.00 | 99 | 1027.1 |
| 20260906172418 | 25 | 220 | 8.0 | 9.7 | 0.00 | 0.00 | 0.00 | 99 | 1027.1 |
| 20260906171913 | 25 | 275 | 11.3 | 12.9 | 0.00 | 0.00 | 0.00 | 99 | 1027.1 |
| 20260906171413 | 25 | 275 | 11.3 | 12.9 | 0.00 | 0.00 | 0.00 | 99 | 1027.1 |
| 20260906170909 | 26 | 294 | 14.5 | 16.1 | 0.00 | 0.00 | 0.00 | 99 | 1027.1 |
| 20260906170406 | 26 | 294 | 14.5 | 16.1 | 0.00 | 0.00 | 0.00 | 99 | 1027.1 |
| 20260906165902 | 26 | 294 | 9.7 | 11.3 | 0.00 | 0.00 | 0.00 | 99 | 1027.2 |
| 20260906165401 | 26 | 294 | 9.7 | 11.3 | 0.00 | 0.00 | 0.00 | 99 | 1027.2 |
| 20260906164855 | 25 | 256 | 6.4 | 6.4 | 0.00 | 0.00 | 0.00 | 99 | 1027.1 |
| 20260906164354 | 25 | 256 | 6.4 | 6.4 | 0.00 | 0.00 | 0.00 | 99 | 1027.1 |
| 20260906163845 | 26 | 27 | 8.0 | 9.7 | 0.00 | 0.00 | 0.00 | 99 | 1027.3 |
| 20260906163342 | 26 | 27 | 8.0 | 9.7 | 0.00 | 0.00 | 0.00 | 99 | 1027.3 |
| 20260906162839 | 25 | 258 | 3.2 | 3.2 | 0.00 | 0.00 | 0.00 | 99 | 1027.5 |
| 20260906162337 | 25 | 258 | 3.2 | 3.2 | 0.00 | 0.00 | 0.00 | 99 | 1027.5 |
| 20260906161833 | 25 | 318 | 6.4 | 9.7 | 0.00 | 0.00 | 0.00 | 99 | 1027.1 |
| 20260906161332 | 25 | 318 | 6.4 | 9.7 | 0.00 | 0.00 | 0.00 | 99 | 1027.1 |
| 20260906160831 | 24 | 105 | 1.6 | 3.2 | 0.00 | 0.00 | 0.00 | 99 | 1027.3 |
| 20260906160325 | 24 | 105 | 1.6 | 3.2 | 0.00 | 0.00 | 0.00 | 99 | 1027.3 |
| 20260906155823 | 23 | 137 | 6.4 | 6.4 | 0.00 | 0.00 | 0.00 | 99 | 1027.3 |
| 20260906155317 | 23 | 137 | 6.4 | 6.4 | 0.00 | 0.00 | 0.00 | 99 | 1027.3 |
| 20260906154814 | 22 | 133 | 1.6 | 3.2 | 0.00 | 0.00 | 0.00 | 99 | 1027.5 |
| 20260906154308 | 22 | 111 | 8.0 | 12.9 | 0.00 | 0.00 | 0.00 | 99 | 1027.3 |
| 20260906153806 | 22 | 111 | 8.0 | 12.9 | 0.00 | 0.00 | 0.00 | 99 | 1027.3 |
| 20260906153300 | 21 | 76 | 9.7 | 12.9 | 0.00 | 0.00 | 0.00 | 99 | 1027.3 |
| 20260906152756 | 21 | 76 | 9.7 | 12.9 | 0.00 | 0.00 | 0.00 | 99 | 1027.3 |
| 20260906152251 | 20 | 122 | 8.0 | 11.3 | 0.00 | 0.00 | 0.00 | 99 | 1027.3 |
| 20260906151749 | 20 | 122 | 8.0 | 11.3 | 0.00 | 0.00 | 0.00 | 99 | 1027.3 |
| 20260906151245 | 20 | 115 | 12.9 | 16.1 | 0.00 | 0.00 | 0.00 | 99 | 1027.5 |
| 20260906150741 | 20 | 115 | 12.9 | 16.1 | 0.00 | 0.00 | 0.00 | 99 | 1027.5 |
| 20260906150236 | 18 | 121 | 16.1 | 17.7 | 0.00 | 0.00 | 0.00 | 99 | 1027.5 |
| 20260906145736 | 18 | 121 | 16.1 | 17.7 | 0.00 | 0.00 | 0.00 | 99 | 1027.5 |
| 20260906145234 | 18 | 128 | 14.5 | 14.5 | 0.00 | 0.00 | 0.00 | 99 | 1027.5 |
| 20260906144730 | 18 | 128 | 14.5 | 14.5 | 0.00 | 0.00 | 0.00 | 99 | 1027.5 |
| 20260906144224 | 18 | 109 | 12.9 | 14.5 | 0.00 | 0.00 | 0.00 | 99 | 1027.6 |
| 20260906143724 | 18 | 109 | 12.9 | 14.5 | 0.00 | 0.00 | 0.00 | 99 | 1027.6 |
| 20260906143221 | 17 | 151 | 12.9 | 12.9 | 0.00 | 0.00 | 0.00 | 99 | 1027.6 |
| 20260906142720 | 17 | 151 | 12.9 | 12.9 | 0.00 | 0.00 | 0.00 | 99 | 1027.6 |
| 20260906142216 | 16 | 105 | 9.7 | 12.9 | 0.00 | 0.00 | 0.00 | 99 | 1027.3 |
| 20260906141714 | 16 | 105 | 9.7 | 12.9 | 0.00 | 0.00 | 0.00 | 99 | 1027.3 |
| 20260906141209 | 16 | 146 | 12.9 | 14.5 | 0.00 | 0.00 | 0.00 | 99 | 1027.7 |
| 20260906140709 | 16 | 146 | 12.9 | 14.5 | 0.00 | 0.00 | 0.00 | 99 | 1027.7 |
| 20260906140204 | 16 | 107 | 11.3 | 11.3 | 0.00 | 0.00 | 0.00 | 99 | 1027.3 |
| 20260906135700 | 16 | 107 | 11.3 | 11.3 | 0.00 | 0.00 | 0.00 | 99 | 1027.3 |
| 20260906135157 | 15 | 103 | 11.3 | 12.9 | 0.00 | 0.00 | 0.00 | 99 | 1027.3 |
| 20260906134652 | 15 | 103 | 11.3 | 12.9 | 0.00 | 0.00 | 0.00 | 99 | 1027.3 |
| 20260906134147 | 15 | 102 | 11.3 | 12.9 | 0.00 | 0.00 | 0.00 | 99 | 1027.2 |
| 20260906133643 | 15 | 102 | 11.3 | 12.9 | 0.00 | 0.00 | 0.00 | 99 | 1027.2 |
| 20260906133138 | 15 | 124 | 14.5 | 14.5 | 0.00 | 0.00 | 0.00 | 99 | 1027.1 |
| 20260906132633 | 15 | 124 | 14.5 | 14.5 | 0.00 | 0.00 | 0.00 | 99 | 1027.1 |
| 20260906132128 | 15 | 163 | 16.1 | 17.7 | 0.00 | 0.00 | 0.00 | 99 | 1026.7 |
| 20260906131624 | 15 | 163 | 16.1 | 17.7 | 0.00 | 0.00 | 0.00 | 99 | 1026.7 |
| 20260906131119 | 15 | 151 | 14.5 | 16.1 | 0.00 | 0.00 | 0.00 | 99 | 1026.8 |
| 20260906130614 | 15 | 151 | 14.5 | 16.1 | 0.00 | 0.00 | 0.00 | 99 | 1026.8 |
| 20260906130109 | 15 | 127 | 12.9 | 12.9 | 0.00 | 0.00 | 0.00 | 99 | 1026.7 |
| 20260906125607 | 15 | 127 | 12.9 | 12.9 | 0.00 | 0.00 | 0.00 | 99 | 1026.7 |
| 20260906125105 | 15 | 107 | 8.0 | 9.7 | 0.00 | 0.00 | 0.00 | 99 | 1026.8 |
| 20260906124556 | 15 | 107 | 8.0 | 9.7 | 0.00 | 0.00 | 0.00 | 99 | 1026.8 |
| 20260906124051 | 15 | 121 | 11.3 | 12.9 | 0.00 | 0.00 | 0.00 | 99 | 1027.1 |
| 20260906123550 | 15 | 121 | 11.3 | 12.9 | 0.00 | 0.00 | 0.00 | 99 | 1027.1 |
| 20260906123045 | 14 | 138 | 9.7 | 11.3 | 0.00 | 0.00 | 0.00 | 99 | 1027.1 |
| 20260906122545 | 14 | 138 | 9.7 | 11.3 | 0.00 | 0.00 | 0.00 | 99 | 1027.1 |
| 20260906122041 | 15 | 119 | 14.5 | 16.1 | 0.00 | 0.00 | 0.00 | 99 | 1027.1 |
| 20260906121536 | 15 | 119 | 14.5 | 16.1 | 0.00 | 0.00 | 0.00 | 99 | 1027.1 |
| 20260906121033 | 15 | 142 | 14.5 | 16.1 | 0.00 | 0.00 | 0.00 | 99 | 1026.8 |
| 20260906120528 | 15 | 142 | 14.5 | 16.1 | 0.00 | 0.00 | 0.00 | 99 | 1026.8 |
| 20260906120025 | 15 | 150 | 12.9 | 14.5 | 0.00 | 0.00 | 0.00 | 99 | 1027.1 |
| 20260906115524 | 15 | 150 | 12.9 | 14.5 | 0.00 | 0.00 | 0.00 | 99 | 1027.1 |
| 20260906115019 | 15 | 168 | 14.5 | 17.7 | 0.00 | 0.00 | 0.00 | 99 | 1027.0 |
| 20260906114514 | 15 | 168 | 14.5 | 17.7 | 0.00 | 0.00 | 0.00 | 99 | 1027.0 |
| 20260906114010 | 15 | 82 | 8.0 | 9.7 | 0.00 | 0.00 | 0.00 | 99 | 1027.1 |
| 20260906113509 | 15 | 82 | 8.0 | 9.7 | 0.00 | 0.00 | 0.00 | 99 | 1027.1 |
| 20260906113005 | 15 | 114 | 17.7 | 22.5 | 0.00 | 0.00 | 0.00 | 99 | 1026.7 |
| 20260906112459 | 15 | 114 | 17.7 | 22.5 | 0.00 | 0.00 | 0.00 | 99 | 1026.7 |
| 20260906111956 | 15 | 98 | 16.1 | 16.1 | 0.00 | 0.00 | 0.00 | 99 | 1027.0 |
| 20260906111455 | 15 | 98 | 16.1 | 16.1 | 0.00 | 0.00 | 0.00 | 99 | 1027.0 |
| 20260906110955 | 14 | 144 | 14.5 | 16.1 | 0.00 | 0.00 | 0.00 | 99 | 1027.0 |
| 20260906110450 | 14 | 144 | 14.5 | 16.1 | 0.00 | 0.00 | 0.00 | 99 | 1027.0 |
| 20260906105949 | 15 | 129 | 12.9 | 14.5 | 0.00 | 0.00 | 0.00 | 99 | 1026.8 |
| 20260906105445 | 15 | 129 | 12.9 | 14.5 | 0.00 | 0.00 | 0.00 | 99 | 1026.8 |
| 20260906104941 | 15 | 102 | 17.7 | 22.5 | 0.00 | 0.00 | 0.00 | 99 | 1026.8 |
| 20260906104439 | 15 | 102 | 17.7 | 22.5 | 0.00 | 0.00 | 0.00 | 99 | 1026.8 |
| 20260906103938 | 15 | 139 | 17.7 | 20.9 | 0.00 | 0.00 | 0.00 | 99 | 1026.5 |
| 20260906103438 | 15 | 139 | 17.7 | 20.9 | 0.00 | 0.00 | 0.00 | 99 | 1026.5 |
| 20260906102933 | 15 | 136 | 16.1 | 16.1 | 0.00 | 0.00 | 0.00 | 99 | 1026.7 |
| 20260906102432 | 15 | 136 | 16.1 | 16.1 | 0.00 | 0.00 | 0.00 | 99 | 1026.7 |
| 20260906101927 | 15 | 132 | 17.7 | 17.7 | 0.00 | 0.00 | 0.00 | 99 | 1026.7 |
| 20260906101422 | 15 | 132 | 17.7 | 17.7 | 0.00 | 0.00 | 0.00 | 99 | 1026.7 |
| 20260906100918 | 15 | 131 | 17.7 | 17.7 | 0.00 | 0.00 | 0.00 | 99 | 1026.8 |
| 20260906100417 | 15 | 131 | 17.7 | 17.7 | 0.00 | 0.00 | 0.00 | 99 | 1026.8 |
| 20260906095912 | 15 | 123 | 17.7 | 20.9 | 0.00 | 0.00 | 0.00 | 99 | 1026.7 |
| 20260906095408 | 15 | 123 | 17.7 | 20.9 | 0.00 | 0.00 | 0.00 | 99 | 1026.7 |
| 20260906094908 | 15 | 154 | 17.7 | 17.7 | 0.00 | 0.00 | 0.00 | 99 | 1026.7 |
| 20260906094403 | 15 | 154 | 17.7 | 17.7 | 0.00 | 0.00 | 0.00 | 99 | 1026.7 |
| 20260906093859 | 15 | 154 | 14.5 | 16.1 | 0.00 | 0.00 | 0.00 | 99 | 1027.0 |
| 20260906093355 | 15 | 154 | 14.5 | 16.1 | 0.00 | 0.00 | 0.00 | 99 | 1027.0 |
| 20260906092855 | 15 | 119 | 17.7 | 20.9 | 0.00 | 0.00 | 0.00 | 99 | 1026.7 |
| 20260906092349 | 15 | 119 | 17.7 | 20.9 | 0.00 | 0.00 | 0.00 | 99 | 1026.7 |
| 20260906091845 | 15 | 129 | 17.7 | 20.9 | 0.00 | 0.00 | 0.00 | 99 | 1026.6 |
| 20260906091341 | 15 | 129 | 17.7 | 20.9 | 0.00 | 0.00 | 0.00 | 99 | 1026.6 |
| 20260906090837 | 15 | 151 | 14.5 | 16.1 | 0.00 | 0.00 | 0.00 | 99 | 1026.6 |
| 20260906090336 | 15 | 151 | 14.5 | 16.1 | 0.00 | 0.00 | 0.00 | 99 | 1026.6 |
| 20260906085830 | 15 | 126 | 16.1 | 16.1 | 0.00 | 0.00 | 0.00 | 99 | 1026.7 |
| 20260906085329 | 15 | 126 | 16.1 | 16.1 | 0.00 | 0.00 | 0.00 | 99 | 1026.7 |
| 20260906084824 | 15 | 160 | 17.7 | 22.5 | 0.00 | 0.00 | 0.00 | 99 | 1026.6 |
| 20260906084323 | 15 | 160 | 17.7 | 22.5 | 0.00 | 0.00 | 0.00 | 99 | 1026.6 |
| 20260906083813 | 16 | 137 | 16.1 | 16.1 | 0.00 | 0.00 | 0.00 | 99 | 1026.7 |
| 20260906083309 | 16 | 137 | 16.1 | 16.1 | 0.00 | 0.00 | 0.00 | 99 | 1026.7 |
| 20260906082808 | 16 | 107 | 12.9 | 14.5 | 0.00 | 0.00 | 0.00 | 99 | 1026.8 |
| 20260906082258 | 16 | 107 | 12.9 | 14.5 | 0.00 | 0.00 | 0.00 | 99 | 1026.8 |
| 20260906081754 | 15 | 118 | 11.3 | 12.9 | 0.00 | 0.00 | 0.00 | 99 | 1027.0 |
| 20260906081250 | 15 | 118 | 11.3 | 12.9 | 0.00 | 0.00 | 0.00 | 99 | 1027.0 |
| 20260906080746 | 15 | 120 | 16.1 | 17.7 | 0.00 | 0.00 | 0.00 | 99 | 1026.8 |
| 20260906080242 | 15 | 120 | 16.1 | 17.7 | 0.00 | 0.00 | 0.00 | 99 | 1026.8 |
| 20260906075741 | 16 | 130 | 14.5 | 16.1 | 0.00 | 0.00 | 0.00 | 99 | 1026.8 |
| 20260906075241 | 16 | 130 | 14.5 | 16.1 | 0.00 | 0.00 | 0.00 | 99 | 1026.8 |
| 20260906074737 | 16 | 98 | 9.7 | 11.3 | 0.00 | 0.00 | 0.00 | 99 | 1027.1 |
| 20260906074236 | 16 | 98 | 9.7 | 11.3 | 0.00 | 0.00 | 0.00 | 99 | 1027.1 |
| 20260906073736 | 16 | 150 | 4.8 | 4.8 | 0.00 | 0.00 | 0.00 | 99 | 1027.2 |
| 20260906073231 | 16 | 150 | 4.8 | 4.8 | 0.00 | 0.00 | 0.00 | 99 | 1027.2 |
| 20260906072726 | 17 | 103 | 6.4 | 6.4 | 0.00 | 0.00 | 0.00 | 99 | 1027.2 |
| 20260906072222 | 17 | 103 | 6.4 | 6.4 | 0.00 | 0.00 | 0.00 | 99 | 1027.2 |
| 20260906071718 | 17 | 132 | 3.2 | 3.2 | 0.00 | 0.00 | 0.00 | 99 | 1027.2 |
| 20260906071218 | 17 | 74 | 6.4 | 6.4 | 0.00 | 0.00 | 0.00 | 99 | 1027.5 |
| 20260906070714 | 17 | 74 | 6.4 | 6.4 | 0.00 | 0.00 | 0.00 | 99 | 1027.5 |
| 20260906070210 | 16 | 82 | 6.4 | 6.4 | 0.00 | 0.00 | 0.00 | 99 | 1027.3 |
| 20260906065704 | 16 | 82 | 6.4 | 6.4 | 0.00 | 0.00 | 0.00 | 99 | 1027.3 |
| 20260906065159 | 17 | 85 | 8.0 | 9.7 | 0.00 | 0.00 | 0.00 | 99 | 1027.2 |
| 20260906064655 | 17 | 85 | 8.0 | 9.7 | 0.00 | 0.00 | 0.00 | 99 | 1027.2 |
| 20260906064150 | 17 | 79 | 4.8 | 6.4 | 0.00 | 0.00 | 0.00 | 99 | 1027.6 |
| 20260906063645 | 17 | 79 | 4.8 | 6.4 | 0.00 | 0.00 | 0.00 | 99 | 1027.6 |
| 20260906063141 | 17 | 102 | 8.0 | 9.7 | 0.00 | 0.00 | 0.00 | 99 | 1027.3 |
| 20260906062637 | 17 | 102 | 8.0 | 9.7 | 0.00 | 0.00 | 0.00 | 99 | 1027.3 |
| 20260906062135 | 17 | 95 | 11.3 | 12.9 | 0.00 | 0.00 | 0.00 | 99 | 1027.5 |
| 20260906061631 | 17 | 95 | 11.3 | 12.9 | 0.00 | 0.00 | 0.00 | 99 | 1027.5 |
| 20260906061131 | 16 | 117 | 14.5 | 16.1 | 0.00 | 0.00 | 0.00 | 99 | 1027.2 |
| 20260906060627 | 16 | 117 | 14.5 | 16.1 | 0.00 | 0.00 | 0.00 | 99 | 1027.2 |
| 20260906060120 | 17 | 106 | 14.5 | 14.5 | 0.00 | 0.03 | 0.03 | 99 | 1027.3 |
| 20260906055615 | 17 | 106 | 14.5 | 14.5 | 0.00 | 0.03 | 0.03 | 99 | 1027.3 |
| 20260906055110 | 16 | 115 | 12.9 | 14.5 | 0.00 | 0.03 | 0.03 | 99 | 1027.2 |
| 20260906054610 | 16 | 115 | 12.9 | 14.5 | 0.00 | 0.03 | 0.03 | 99 | 1027.2 |
| 20260906054100 | 17 | 124 | 14.5 | 14.5 | 0.00 | 0.03 | 0.03 | 99 | 1026.8 |
| 20260906053556 | 17 | 124 | 14.5 | 14.5 | 0.00 | 0.03 | 0.03 | 99 | 1026.8 |
| 20260906053052 | 17 | 120 | 17.7 | 17.7 | 0.00 | 0.03 | 0.03 | 99 | 1027.0 |
| 20260906052546 | 17 | 120 | 17.7 | 17.7 | 0.00 | 0.03 | 0.03 | 99 | 1027.0 |
| 20260906052043 | 17 | 105 | 14.5 | 16.1 | 0.00 | 0.03 | 0.03 | 99 | 1027.1 |
| 20260906051538 | 17 | 105 | 14.5 | 16.1 | 0.00 | 0.03 | 0.03 | 99 | 1027.1 |
| 20260906051034 | 17 | 149 | 17.7 | 20.9 | 0.00 | 0.03 | 0.03 | 99 | 1027.2 |
| 20260906050530 | 17 | 149 | 17.7 | 20.9 | 0.00 | 0.03 | 0.03 | 99 | 1027.2 |
| 20260906050025 | 17 | 120 | 12.9 | 14.5 | 0.00 | 0.03 | 0.03 | 99 | 1027.1 |
| 20260906045523 | 17 | 120 | 12.9 | 14.5 | 0.00 | 0.03 | 0.03 | 99 | 1027.1 |
| 20260906045018 | 17 | 115 | 16.1 | 16.1 | 0.00 | 0.03 | 0.03 | 99 | 1027.0 |
| 20260906044514 | 17 | 115 | 16.1 | 16.1 | 0.00 | 0.03 | 0.03 | 99 | 1027.0 |
| 20260906044009 | 17 | 101 | 16.1 | 16.1 | 0.00 | 0.03 | 0.03 | 99 | 1026.8 |
| 20260906043505 | 17 | 101 | 16.1 | 16.1 | 0.00 | 0.03 | 0.03 | 99 | 1026.8 |
| 20260906043001 | 17 | 124 | 16.1 | 16.1 | 0.00 | 0.03 | 0.03 | 99 | 1026.8 |
| 20260906042500 | 17 | 124 | 16.1 | 16.1 | 0.00 | 0.03 | 0.03 | 99 | 1026.8 |
| 20260906041959 | 17 | 141 | 17.7 | 20.9 | 0.00 | 0.03 | 0.03 | 99 | 1026.8 |
| 20260906041456 | 17 | 141 | 17.7 | 20.9 | 0.00 | 0.03 | 0.03 | 99 | 1026.8 |
| 20260906040955 | 17 | 135 | 19.3 | 20.9 | 0.00 | 0.03 | 0.03 | 99 | 1026.8 |
| 20260906040450 | 17 | 135 | 19.3 | 20.9 | 0.00 | 0.03 | 0.03 | 99 | 1026.8 |
| 20260906035946 | 17 | 109 | 14.5 | 17.7 | 0.00 | 0.03 | 0.03 | 99 | 1027.0 |
| 20260906035441 | 17 | 109 | 14.5 | 17.7 | 0.00 | 0.03 | 0.03 | 99 | 1027.0 |
| 20260906034936 | 17 | 169 | 19.3 | 22.5 | 0.00 | 0.03 | 0.03 | 99 | 1027.1 |
| 20260906034431 | 17 | 169 | 19.3 | 22.5 | 0.00 | 0.03 | 0.03 | 99 | 1027.1 |
| 20260906033926 | 17 | 175 | 14.5 | 17.7 | 0.00 | 0.03 | 0.03 | 99 | 1027.2 |
| 20260906033421 | 17 | 175 | 14.5 | 17.7 | 0.00 | 0.03 | 0.03 | 99 | 1027.2 |
| 20260906032916 | 17 | 154 | 20.9 | 24.1 | 0.00 | 0.03 | 0.03 | 99 | 1026.8 |
| 20260906032413 | 17 | 154 | 20.9 | 24.1 | 0.00 | 0.03 | 0.03 | 99 | 1026.8 |
| 20260906031912 | 18 | 167 | 19.3 | 22.5 | 0.00 | 0.03 | 0.03 | 99 | 1026.8 |
| 20260906031408 | 18 | 167 | 19.3 | 22.5 | 0.00 | 0.03 | 0.03 | 99 | 1026.8 |
| 20260906030903 | 18 | 147 | 16.1 | 17.7 | 0.00 | 0.03 | 0.03 | 99 | 1026.7 |
| 20260906030358 | 18 | 147 | 16.1 | 17.7 | 0.00 | 0.03 | 0.03 | 99 | 1026.7 |
| 20260906025852 | 18 | 120 | 16.1 | 16.1 | 0.00 | 0.03 | 0.03 | 99 | 1026.8 |
| 20260906025346 | 18 | 120 | 16.1 | 16.1 | 0.00 | 0.03 | 0.03 | 99 | 1026.8 |
| 20260906024845 | 18 | 146 | 12.9 | 14.5 | 0.00 | 0.03 | 0.03 | 99 | 1026.8 |
| 20260906024344 | 18 | 146 | 12.9 | 14.5 | 0.00 | 0.03 | 0.03 | 99 | 1026.8 |
| 20260906023840 | 18 | 162 | 14.5 | 16.1 | 0.00 | 0.03 | 0.03 | 99 | 1026.6 |
| 20260906023336 | 18 | 162 | 14.5 | 16.1 | 0.00 | 0.03 | 0.03 | 99 | 1026.6 |
| 20260906022831 | 18 | 142 | 16.1 | 17.7 | 0.00 | 0.03 | 0.03 | 99 | 1026.6 |
| 20260906022326 | 18 | 142 | 16.1 | 17.7 | 0.00 | 0.03 | 0.03 | 99 | 1026.6 |
| 20260906021822 | 18 | 151 | 17.7 | 17.7 | 0.00 | 0.03 | 0.03 | 99 | 1026.5 |
| 20260906021321 | 18 | 151 | 17.7 | 17.7 | 0.00 | 0.03 | 0.03 | 99 | 1026.5 |
| 20260906020821 | 18 | 94 | 14.5 | 16.1 | 0.00 | 0.03 | 0.03 | 99 | 1026.5 |
| 20260906020315 | 18 | 94 | 14.5 | 16.1 | 0.00 | 0.03 | 0.03 | 99 | 1026.5 |
| 20260906015810 | 18 | 138 | 16.1 | 17.7 | 0.00 | 0.03 | 0.03 | 99 | 1026.3 |
| 20260906015308 | 18 | 138 | 16.1 | 17.7 | 0.00 | 0.03 | 0.03 | 99 | 1026.3 |
| 20260906014803 | 18 | 147 | 19.3 | 24.1 | 0.00 | 0.03 | 0.03 | 99 | 1026.3 |
| 20260906014259 | 18 | 147 | 19.3 | 24.1 | 0.00 | 0.03 | 0.03 | 99 | 1026.3 |
| 20260906013755 | 18 | 142 | 16.1 | 17.7 | 0.00 | 0.03 | 0.03 | 99 | 1026.6 |
| 20260906013255 | 18 | 142 | 16.1 | 17.7 | 0.00 | 0.03 | 0.03 | 99 | 1026.6 |
| 20260906012750 | 18 | 151 | 14.5 | 14.5 | 0.00 | 0.03 | 0.03 | 99 | 1026.6 |
| 20260906012245 | 18 | 151 | 14.5 | 14.5 | 0.00 | 0.03 | 0.03 | 99 | 1026.6 |
| 20260906011740 | 18 | 143 | 12.9 | 14.5 | 0.00 | 0.03 | 0.03 | 99 | 1026.6 |
| 20260906011240 | 18 | 143 | 12.9 | 14.5 | 0.00 | 0.03 | 0.03 | 99 | 1026.6 |
| 20260906010735 | 18 | 148 | 17.7 | 20.9 | 0.00 | 0.03 | 0.03 | 99 | 1027.0 |
| 20260906010232 | 18 | 148 | 17.7 | 20.9 | 0.00 | 0.03 | 0.03 | 99 | 1027.0 |
| 20260906005727 | 18 | 107 | 16.1 | 16.1 | 0.00 | 0.03 | 0.03 | 99 | 1027.0 |
| 20260906005226 | 18 | 107 | 16.1 | 16.1 | 0.00 | 0.03 | 0.03 | 99 | 1027.0 |
| 20260906004725 | 18 | 168 | 12.9 | 14.5 | 0.00 | 0.03 | 0.03 | 99 | 1027.0 |
| 20260906004220 | 18 | 168 | 12.9 | 14.5 | 0.00 | 0.03 | 0.03 | 99 | 1027.0 |
| 20260906003715 | 18 | 134 | 9.7 | 12.9 | 0.00 | 0.03 | 0.03 | 99 | 1027.2 |
| 20260906003211 | 18 | 134 | 9.7 | 12.9 | 0.00 | 0.03 | 0.03 | 99 | 1027.2 |
| 20260906002711 | 18 | 92 | 9.7 | 12.9 | 0.00 | 0.03 | 0.03 | 99 | 1027.0 |
| 20260906002206 | 18 | 92 | 9.7 | 12.9 | 0.00 | 0.03 | 0.03 | 99 | 1027.0 |
| 20260906001701 | 18 | 104 | 12.9 | 16.1 | 0.00 | 0.03 | 0.03 | 99 | 1027.0 |
| 20260906001156 | 18 | 104 | 12.9 | 16.1 | 0.00 | 0.03 | 0.03 | 99 | 1027.0 |
| 20260906000651 | 20 | 141 | 3.2 | 4.8 | 0.00 | 0.03 | 0.03 | 99 | 1027.3 |
| 20260906000146 | 20 | 141 | 3.2 | 4.8 | 0.00 | 0.03 | 0.03 | 99 | 1027.3 |
| 20260905235645 | 19 | 250 | 4.8 | 4.8 | 0.00 | 0.03 | 0.03 | 99 | 1027.8 |
| 20260905235140 | 19 | 250 | 4.8 | 4.8 | 0.00 | 0.03 | 0.03 | 99 | 1027.8 |
| 20260905234636 | 17 | 159 | 11.3 | 12.9 | 0.00 | 0.03 | 0.03 | 99 | 1028.1 |
| 20260905234132 | 17 | 97 | 29.0 | 30.6 | 0.18 | 0.03 | 0.03 | 99 | 1027.7 |
| 20260905233631 | 17 | 97 | 29.0 | 30.6 | 0.18 | 0.03 | 0.03 | 99 | 1027.7 |
| 20260905233125 | 22 | 79 | 14.5 | 22.5 | 0.00 | 0.00 | 0.00 | 99 | 1027.7 |
| 20260905232621 | 22 | 79 | 14.5 | 22.5 | 0.00 | 0.00 | 0.00 | 99 | 1027.7 |
| 20260905232117 | 22 | 131 | 9.7 | 11.3 | 0.00 | 0.00 | 0.00 | 99 | 1027.1 |
| 20260905231617 | 22 | 131 | 9.7 | 11.3 | 0.00 | 0.00 | 0.00 | 99 | 1027.1 |
| 20260905231113 | 22 | 94 | 3.2 | 3.2 | 0.00 | 0.00 | 0.00 | 99 | 1026.8 |
| 20260905230609 | 22 | 94 | 3.2 | 3.2 | 0.00 | 0.00 | 0.00 | 99 | 1026.8 |
| 20260905230107 | 22 | 12 | 16.1 | 20.9 | 0.00 | 0.00 | 0.00 | 99 | 1026.3 |
| 20260905225601 | 22 | 12 | 16.1 | 20.9 | 0.00 | 0.00 | 0.00 | 99 | 1026.3 |
| 20260905225056 | 22 | 346 | 17.7 | 22.5 | 0.00 | 0.00 | 0.00 | 99 | 1026.3 |
| 20260905224555 | 22 | 346 | 17.7 | 22.5 | 0.00 | 0.00 | 0.00 | 99 | 1026.3 |
| 20260905224054 | 22 | 14 | 27.4 | 33.8 | 0.00 | 0.00 | 0.00 | 99 | 1026.1 |
| 20260905223552 | 22 | 14 | 27.4 | 33.8 | 0.00 | 0.00 | 0.00 | 99 | 1026.1 |
| 20260905223049 | 25 | 89 | 22.5 | 27.4 | 0.00 | 0.00 | 0.00 | 99 | 1026.0 |
| 20260905222548 | 25 | 89 | 22.5 | 27.4 | 0.00 | 0.00 | 0.00 | 99 | 1026.0 |
| 20260905222043 | 25 | 343 | 9.7 | 14.5 | 0.00 | 0.00 | 0.00 | 99 | 1025.7 |
| 20260905221540 | 25 | 343 | 9.7 | 14.5 | 0.00 | 0.00 | 0.00 | 99 | 1025.7 |
| 20260905221035 | 25 | 300 | 16.1 | 20.9 | 0.00 | 0.00 | 0.00 | 99 | 1025.3 |
| 20260905220531 | 25 | 300 | 16.1 | 20.9 | 0.00 | 0.00 | 0.00 | 99 | 1025.3 |
| 20260905220027 | 26 | 301 | 4.8 | 4.8 | 0.00 | 0.00 | 0.00 | 99 | 1025.8 |